Time;durP1;ratioP1;P1;durP2;ratioP2;P2;SDS_P1;SDS_P2;PMS_P1;PMS_P2;Temp;Humidity;BMP_temperature;BMP_pressure;BME280_temperature;BME280_humidity;BME280_pressure;Samples;Min_cycle;Max_cycle;Signal;HPM_P1;HPM_P2
2022/01/05 00:01:06;;;;;;;17.67;2.45;;;;;;;2.76;96.51;98051.38;4943543;29;20502;-75
2022/01/05 00:03:32;;;;;;;10.05;2.80;;;;;;;2.79;96.22;98062.34;4956549;28;20035;-76
2022/01/05 00:06:00;;;;;;;13.98;2.17;;;;;;;2.86;96.45;98056.59;4931604;29;20033;-75
2022/01/05 00:08:25;;;;;;;8.88;1.92;;;;;;;2.92;96.31;98055.47;4946802;28;20031;-76
2022/01/05 00:10:54;;;;;;;13.13;2.70;;;;;;;2.97;96.32;98052.69;4929144;28;20031;-75
2022/01/05 00:13:19;;;;;;;11.45;1.63;;;;;;;2.96;95.76;98047.59;4954096;28;20380;-75
2022/01/05 00:15:45;;;;;;;9.10;2.53;;;;;;;2.92;95.89;98050.09;4953567;28;20031;-75
2022/01/05 00:18:12;;;;;;;5.53;1.38;;;;;;;2.91;95.87;98051.16;4952170;28;20018;-76
2022/01/05 00:20:41;;;;;;;7.10;1.33;;;;;;;2.94;95.46;98064.03;4956199;28;20075;-75
2022/01/05 00:23:06;;;;;;;8.90;1.42;;;;;;;2.92;95.65;98058.16;4918863;28;20029;-76
2022/01/05 00:25:31;;;;;;;9.75;1.17;;;;;;;2.87;95.73;98069.00;4950475;28;20039;-75
2022/01/05 00:27:57;;;;;;;7.28;1.00;;;;;;;2.80;95.09;98063.16;4945763;28;20035;-75
2022/01/05 00:30:22;;;;;;;9.55;1.58;;;;;;;2.74;95.03;98069.69;4957012;28;20031;-76
2022/01/05 00:32:48;;;;;;;12.13;1.55;;;;;;;2.71;95.32;98072.97;4930652;29;20206;-76
2022/01/05 00:35:13;;;;;;;10.88;1.45;;;;;;;2.69;95.30;98067.06;4953668;28;20034;-76
2022/01/05 00:37:38;;;;;;;10.18;1.75;;;;;;;2.69;95.47;98083.22;4963906;28;20023;-76
2022/01/05 00:40:04;;;;;;;13.07;1.83;;;;;;;2.67;95.99;98084.31;4949430;28;20168;-76
2022/01/05 00:42:30;;;;;;;11.25;1.77;;;;;;;2.70;95.65;98088.31;4957768;28;20023;-76
2022/01/05 00:44:55;;;;;;;8.60;1.75;;;;;;;2.73;95.99;98078.84;4953284;28;20058;-76
2022/01/05 00:47:21;;;;;;;6.25;1.10;;;;;;;2.76;96.04;98097.13;4944428;28;20029;-76
2022/01/05 00:49:46;;;;;;;7.88;1.88;;;;;;;2.79;95.78;98083.09;4953087;28;20050;-76
2022/01/05 00:52:13;;;;;;;8.55;1.67;;;;;;;2.83;96.06;98092.16;4964834;28;20019;-76
2022/01/05 00:54:38;;;;;;;7.82;1.73;;;;;;;2.86;95.96;98094.28;4935972;29;20527;-76
2022/01/05 00:57:04;;;;;;;6.72;1.48;;;;;;;2.89;96.49;98077.53;4956736;28;20045;-76
2022/01/05 00:59:29;;;;;;;16.67;2.20;;;;;;;2.92;96.23;98087.75;4919132;29;20133;-76
2022/01/05 01:01:54;;;;;;;10.55;2.10;;;;;;;2.95;96.37;98076.41;4938280;28;20370;-75
2022/01/05 01:04:20;;;;;;;14.52;1.48;;;;;;;2.96;95.76;98085.28;4959759;28;20429;-75
2022/01/05 01:06:45;;;;;;;7.55;1.35;;;;;;;2.90;96.20;98087.25;4956611;28;20035;-75
2022/01/05 01:09:11;;;;;;;13.50;2.05;;;;;;;2.89;96.01;98077.53;4947375;28;20080;-75
2022/01/05 01:11:39;;;;;;;7.22;1.42;;;;;;;2.90;95.93;98073.78;4975187;28;20416;-76
2022/01/05 01:14:05;;;;;;;9.27;1.58;;;;;;;2.90;96.27;98073.78;4949294;29;20043;-76
2022/01/05 01:16:30;;;;;;;17.98;3.08;;;;;;;2.90;95.80;98068.41;4967826;28;20030;-76
2022/01/05 01:18:55;;;;;;;10.70;1.73;;;;;;;2.95;96.37;98068.34;4954013;28;20457;-76
2022/01/05 01:21:21;;;;;;;14.30;1.98;;;;;;;2.98;96.34;98064.28;4951123;28;20449;-76
2022/01/05 01:23:55;;;;;;;14.68;2.50;;;;;;;3.01;96.49;98069.84;4961594;28;20035;-76
2022/01/05 01:26:29;;;;;;;8.82;1.92;;;;;;;3.03;96.31;98078.44;4963216;28;20473;-76
2022/01/05 01:28:54;;;;;;;18.38;4.35;;;;;;;3.04;96.23;98058.50;4927671;28;20039;-76
2022/01/05 01:31:20;;;;;;;9.95;3.63;;;;;;;3.06;96.27;98063.63;4967830;28;20031;-76
2022/01/05 01:33:45;;;;;;;7.22;2.20;;;;;;;3.04;95.80;98057.72;4951052;28;20031;-76
2022/01/05 01:36:11;;;;;;;11.35;2.58;;;;;;;3.05;96.19;98053.91;4961149;28;20027;-77
2022/01/05 01:38:38;;;;;;;9.40;2.42;;;;;;;3.08;96.35;98048.78;4953404;28;20038;-76
2022/01/05 01:41:04;;;;;;;8.80;2.50;;;;;;;3.14;96.66;98054.88;4936280;28;20170;-76
2022/01/05 01:43:29;;;;;;;14.13;2.42;;;;;;;3.16;96.20;98059.97;4938909;28;20114;-75
2022/01/05 01:45:55;;;;;;;13.70;1.80;;;;;;;3.18;96.35;98044.31;4944728;28;20089;-76
2022/01/05 01:48:20;;;;;;;9.93;1.95;;;;;;;3.18;96.52;98058.56;4955300;28;20043;-76
2022/01/05 01:50:46;;;;;;;14.65;2.20;;;;;;;3.20;96.70;98050.22;4940920;28;20031;-75
2022/01/05 01:53:13;;;;;;;11.85;2.13;;;;;;;3.19;96.61;98059.38;4939636;29;20032;-76
2022/01/05 01:55:39;;;;;;;8.68;1.92;;;;;;;3.18;96.58;98042.41;4952197;29;20089;-76
2022/01/05 01:58:05;;;;;;;7.55;1.23;;;;;;;3.19;96.25;98049.44;4954870;28;20027;-76
2022/01/05 02:00:31;;;;;;;11.70;2.50;;;;;;;3.20;96.02;98039.44;4936574;28;20100;-76
2022/01/05 02:02:56;;;;;;;10.45;1.38;;;;;;;3.19;96.36;98048.59;4944869;29;20171;-75
2022/01/05 02:05:22;;;;;;;8.20;2.10;;;;;;;3.16;95.95;98041.13;4956638;28;20026;-75
2022/01/05 02:07:49;;;;;;;9.85;2.17;;;;;;;3.14;95.86;98049.50;4956565;28;20038;-75
2022/01/05 02:10:15;;;;;;;15.65;2.78;;;;;;;3.14;96.07;98032.53;4936707;29;20042;-76
2022/01/05 02:12:40;;;;;;;13.02;2.05;;;;;;;3.17;96.55;98031.97;4933928;28;20023;-76
2022/01/05 02:15:06;;;;;;;10.52;1.58;;;;;;;3.20;96.28;98031.38;4937090;29;20035;-76
2022/01/05 02:17:52;;;;;;;10.85;2.25;;;;;;;3.23;96.44;98042.34;4922180;29;20317;-76
2022/01/05 02:20:23;;;;;;;14.75;2.67;;;;;;;3.29;96.33;98026.91;4932265;29;20506;-75
2022/01/05 02:22:48;;;;;;;12.50;2.63;;;;;;;3.32;96.25;98035.19;4920230;28;20035;-75
2022/01/05 02:25:14;;;;;;;8.95;2.00;;;;;;;3.31;96.06;98041.69;4936754;29;20110;-77
2022/01/05 02:27:40;;;;;;;7.18;1.63;;;;;;;3.28;95.85;98033.41;4953303;28;20058;-75
2022/01/05 02:30:07;;;;;;;9.13;1.65;;;;;;;3.17;95.55;98042.72;4924015;29;20028;-74
2022/01/05 02:32:33;;;;;;;6.07;1.17;;;;;;;3.06;95.52;98037.50;4949118;28;20037;-75
2022/01/05 02:34:58;;;;;;;8.50;1.45;;;;;;;3.03;96.13;98032.69;4947596;28;20410;-75
2022/01/05 02:37:24;;;;;;;7.90;1.45;;;;;;;3.08;96.09;98043.41;4953226;28;20489;-75
2022/01/05 02:39:49;;;;;;;16.55;2.58;;;;;;;3.10;96.04;98035.00;4945128;28;20074;-75
2022/01/05 02:42:27;;;;;;;6.03;1.90;;;;;;;3.08;96.55;98042.56;4954256;28;20038;-77
2022/01/05 02:44:53;;;;;;;10.20;1.30;;;;;;;3.06;96.44;98050.16;4917446;28;20066;-75
2022/01/05 02:47:18;;;;;;;12.05;2.05;;;;;;;2.98;96.57;98043.53;4937160;29;20372;-76
2022/01/05 02:49:43;;;;;;;8.90;1.67;;;;;;;2.96;96.28;98045.72;4948230;28;20040;-75
2022/01/05 02:52:09;;;;;;;8.43;1.60;;;;;;;2.93;96.32;98051.69;4951564;28;20020;-75
2022/01/05 02:54:34;;;;;;;9.07;1.33;;;;;;;2.95;96.85;98049.50;4950847;28;20039;-76
2022/01/05 02:57:00;;;;;;;10.20;1.73;;;;;;;2.96;96.55;98050.28;4936955;28;20023;-75
2022/01/05 02:59:25;;;;;;;10.73;1.90;;;;;;;2.93;96.41;98040.91;4952846;28;20051;-75
2022/01/05 03:01:50;;;;;;;3.10;1.23;;;;;;;2.95;96.86;98038.75;4935829;29;20035;-75
2022/01/05 03:04:16;;;;;;;13.60;2.00;;;;;;;2.92;97.14;98047.41;4951643;28;20042;-75
2022/01/05 03:06:41;;;;;;;5.10;1.17;;;;;;;2.94;96.80;98047.88;4953174;28;20093;-75
2022/01/05 03:09:06;;;;;;;11.48;2.22;;;;;;;2.92;96.73;98055.47;4951604;28;20035;-74
2022/01/05 03:11:32;;;;;;;5.78;1.25;;;;;;;2.89;96.69;98034.50;4932690;29;20037;-75
2022/01/05 03:13:57;;;;;;;15.27;2.28;;;;;;;2.89;96.44;98029.13;4953372;28;20369;-75
2022/01/05 03:16:23;;;;;;;6.63;1.45;;;;;;;2.89;97.19;98029.13;4953294;28;20031;-75
2022/01/05 03:18:48;;;;;;;3.63;1.05;;;;;;;2.90;97.27;98028.03;4940428;29;20027;-75
2022/01/05 03:21:13;;;;;;;8.77;1.63;;;;;;;2.95;97.04;98021.81;4935840;28;20049;-75
2022/01/05 03:23:39;;;;;;;6.18;1.55;;;;;;;2.95;96.75;98022.59;4935901;29;20035;-75
2022/01/05 03:26:04;;;;;;;6.70;1.50;;;;;;;2.88;97.03;98044.47;4952825;28;20472;-75
2022/01/05 03:28:30;;;;;;;15.43;1.83;;;;;;;2.81;96.79;98025.22;4953762;28;20023;-75
2022/01/05 03:30:55;;;;;;;12.90;2.40;;;;;;;2.79;97.28;98024.69;4917634;28;20100;-75
2022/01/05 03:33:21;;;;;;;7.93;2.55;;;;;;;2.75;96.96;98033.63;4917106;29;20031;-75
2022/01/05 03:35:47;;;;;;;16.73;3.05;;;;;;;2.69;96.84;98005.22;4942558;28;20401;-75
2022/01/05 03:38:15;;;;;;;10.80;2.10;;;;;;;2.71;97.41;98006.53;4934656;28;20047;-75
2022/01/05 03:40:41;;;;;;;14.55;1.80;;;;;;;2.81;97.20;98019.00;4935439;28;20023;-75
2022/01/05 03:43:06;;;;;;;19.05;2.60;;;;;;;2.89;97.59;98010.28;4936010;29;20512;-76
2022/01/05 03:45:32;;;;;;;15.85;3.22;;;;;;;2.99;98.09;97996.69;4935330;29;20031;-75
2022/01/05 03:47:58;;;;;;;23.27;3.53;;;;;;;3.10;98.28;98003.50;4936529;29;20111;-75
2022/01/05 03:50:23;;;;;;;18.77;2.92;;;;;;;3.22;98.46;98003.06;4915472;29;20074;-76
2022/01/05 03:52:49;;;;;;;43.25;4.78;;;;;;;3.32;98.60;97989.44;4953513;28;20027;-76
2022/01/05 03:55:14;;;;;;;15.35;4.28;;;;;;;3.42;98.92;97996.53;4952233;28;20318;-75
2022/01/05 03:57:39;;;;;;;11.00;2.15;;;;;;;3.50;98.83;97982.41;4952727;28;20039;-76
2022/01/05 04:00:06;;;;;;;24.63;3.67;;;;;;;3.53;98.61;97986.41;4951851;28;20050;-75
2022/01/05 04:02:32;;;;;;;20.02;2.53;;;;;;;3.55;98.04;97989.59;4951972;28;20110;-76
2022/01/05 04:04:57;;;;;;;16.52;2.78;;;;;;;3.58;98.38;97974.75;4951258;28;20035;-76
2022/01/05 04:07:23;;;;;;;16.25;2.85;;;;;;;3.58;97.71;97977.44;4933534;29;20046;-76
2022/01/05 04:09:48;;;;;;;19.85;2.75;;;;;;;3.58;97.72;97969.34;4933931;29;20034;-76
2022/01/05 04:12:14;;;;;;;10.20;1.75;;;;;;;3.59;97.52;97973.63;4953096;28;20031;-76
2022/01/05 04:14:39;;;;;;;15.65;2.53;;;;;;;3.61;97.61;97964.16;4952201;28;20425;-75
2022/01/05 04:17:04;;;;;;;10.15;2.63;;;;;;;3.63;97.62;97990.78;4953139;28;20035;-76
2022/01/05 04:19:31;;;;;;;12.07;2.75;;;;;;;3.64;97.23;97976.25;4952284;28;20019;-76
2022/01/05 04:21:56;;;;;;;13.70;2.03;;;;;;;3.65;96.88;97989.41;4936288;29;20031;-75
2022/01/05 04:24:22;;;;;;;11.15;1.98;;;;;;;3.66;96.78;97985.63;4930027;29;20058;-76
2022/01/05 04:26:49;;;;;;;12.82;2.55;;;;;;;3.67;96.63;97986.41;4952837;28;20043;-76
2022/01/05 04:29:15;;;;;;;16.00;3.10;;;;;;;3.68;96.62;97996.91;4956997;28;20035;-76
2022/01/05 04:31:40;;;;;;;16.65;4.50;;;;;;;3.67;96.55;97989.91;4938530;29;20098;-75
2022/01/05 04:34:06;;;;;;;15.27;1.63;;;;;;;3.67;96.63;97994.50;4956904;28;20098;-76
2022/01/05 04:36:31;;;;;;;11.70;2.83;;;;;;;3.67;96.55;97989.13;4950321;28;20027;-76
2022/01/05 04:38:57;;;;;;;15.25;2.58;;;;;;;3.67;96.16;98007.97;4961339;28;20023;-76
2022/01/05 04:41:22;;;;;;;14.90;2.35;;;;;;;3.68;96.44;98001.47;4959917;28;20481;-75
2022/01/05 04:43:47;;;;;;;19.20;3.28;;;;;;;3.70;96.46;98016.25;4938509;29;20031;-76
2022/01/05 04:46:13;;;;;;;19.95;3.95;;;;;;;3.70;96.50;98021.63;4938934;29;20023;-76
2022/01/05 04:48:38;;;;;;;11.50;3.35;;;;;;;3.70;96.46;98004.69;4938928;28;20109;-77
2022/01/05 04:51:04;;;;;;;15.60;5.18;;;;;;;3.70;96.71;98004.69;4955519;28;20023;-77
2022/01/05 04:53:29;;;;;;;18.95;4.32;;;;;;;3.70;96.62;98010.84;4939379;28;20031;-77
2022/01/05 04:55:55;;;;;;;20.27;2.30;;;;;;;3.70;96.92;98007.38;4937559;29;20049;-76
2022/01/05 04:58:20;;;;;;;11.98;3.40;;;;;;;3.70;96.54;98000.09;4937990;29;20058;-76
2022/01/05 05:00:46;;;;;;;12.65;2.33;;;;;;;3.69;96.12;98013.88;4955316;28;20098;-76
2022/01/05 05:03:12;;;;;;;13.43;2.58;;;;;;;3.66;96.25;98015.25;4954991;28;20122;-76
2022/01/05 05:05:37;;;;;;;12.70;1.90;;;;;;;3.64;96.03;98016.66;4938216;28;20129;-76
2022/01/05 05:08:03;;;;;;;12.80;2.97;;;;;;;3.63;95.76;98015.03;4938165;29;20027;-75
2022/01/05 05:10:29;;;;;;;11.85;2.08;;;;;;;3.58;95.66;98017.84;4938454;29;20031;-75
2022/01/05 05:12:54;;;;;;;9.10;2.60;;;;;;;3.49;95.81;98013.13;4955933;28;20038;-75
2022/01/05 05:15:20;;;;;;;15.38;2.30;;;;;;;3.44;95.41;98021.28;4955067;28;20082;-75
2022/01/05 05:17:48;;;;;;;17.35;3.13;;;;;;;3.40;95.90;98032.94;4955562;28;20033;-75
2022/01/05 05:20:14;;;;;;;18.58;3.00;;;;;;;3.35;96.06;98041.88;4937835;29;20023;-75
2022/01/05 05:22:39;;;;;;;9.88;2.40;;;;;;;3.28;95.87;98025.31;4938641;29;20388;-75
2022/01/05 05:25:05;;;;;;;13.30;3.08;;;;;;;3.26;95.89;98033.69;4937665;29;20042;-76
2022/01/05 05:27:30;;;;;;;13.18;2.97;;;;;;;3.28;96.12;98030.72;4938179;28;20090;-75
2022/01/05 05:29:56;;;;;;;16.95;2.25;;;;;;;3.27;96.14;98034.47;4954549;28;20031;-75
2022/01/05 05:32:21;;;;;;;8.00;1.98;;;;;;;3.20;95.90;98039.44;4955358;28;20469;-75
2022/01/05 05:34:47;;;;;;;11.65;2.67;;;;;;;3.09;95.45;98038.81;4938463;28;20086;-76
2022/01/05 05:37:12;;;;;;;12.93;3.45;;;;;;;3.01;95.29;98042.94;4952020;28;20365;-75
2022/01/05 05:39:37;;;;;;;13.35;2.70;;;;;;;2.99;95.67;98041.63;4955750;28;20441;-75
2022/01/05 05:42:03;;;;;;;18.67;4.18;;;;;;;3.02;95.86;98032.97;4953786;28;20027;-76
2022/01/05 05:44:29;;;;;;;15.95;3.20;;;;;;;3.09;95.94;98044.19;4953449;29;20030;-76
2022/01/05 05:46:54;;;;;;;15.32;3.20;;;;;;;3.15;96.65;98036.84;4952050;28;20039;-75
2022/01/05 05:49:19;;;;;;;13.20;2.38;;;;;;;3.17;96.50;98032.75;4938544;29;20379;-76
2022/01/05 05:51:45;;;;;;;12.77;2.88;;;;;;;3.21;96.30;98043.72;4944214;28;20068;-76
2022/01/05 05:54:10;;;;;;;21.80;3.75;;;;;;;3.24;96.37;98043.94;4955450;28;20467;-76
2022/01/05 05:56:36;;;;;;;13.38;3.75;;;;;;;3.29;96.21;98037.69;4936602;29;20030;-76
2022/01/05 05:59:01;;;;;;;19.13;3.40;;;;;;;3.33;96.40;98034.13;4954681;28;20047;-76
2022/01/05 06:01:27;;;;;;;16.95;2.78;;;;;;;3.38;96.45;98041.28;4953625;28;20024;-76
2022/01/05 06:03:53;;;;;;;19.75;3.72;;;;;;;3.40;96.77;98033.72;4917750;29;21011;-76
2022/01/05 06:06:18;;;;;;;16.42;3.13;;;;;;;3.42;96.39;98036.94;4952996;28;20507;-76
2022/01/05 06:08:44;;;;;;;17.27;3.45;;;;;;;3.44;96.69;98040.13;4955068;28;20040;-76
2022/01/05 06:11:09;;;;;;;13.05;3.88;;;;;;;3.44;96.25;98023.97;4953521;28;20082;-76
2022/01/05 06:13:34;;;;;;;13.25;3.22;;;;;;;3.44;96.28;98032.06;4954105;28;20385;-76
2022/01/05 06:16:00;;;;;;;20.65;4.05;;;;;;;3.44;96.62;98045.53;4953602;28;20031;-76
2022/01/05 06:18:25;;;;;;;12.88;3.92;;;;;;;3.46;96.88;98042.53;4954069;28;20023;-76
2022/01/05 06:20:51;;;;;;;16.80;3.88;;;;;;;3.46;96.61;98040.63;4954122;28;20114;-76
2022/01/05 06:23:16;;;;;;;18.35;4.90;;;;;;;3.49;96.75;98048.16;4946795;28;20023;-76
2022/01/05 06:25:44;;;;;;;17.92;3.92;;;;;;;3.49;96.95;98048.16;4952510;28;20031;-76
2022/01/05 06:28:11;;;;;;;18.73;4.45;;;;;;;3.51;96.75;98040.53;4953296;28;20027;-76
2022/01/05 06:30:40;;;;;;;11.60;4.57;;;;;;;3.51;96.70;98045.94;4936570;29;20113;-76
2022/01/05 06:33:06;;;;;;;12.52;4.22;;;;;;;3.53;96.89;98049.13;4934688;28;20108;-76
2022/01/05 06:35:32;;;;;;;21.75;5.60;;;;;;;3.53;96.96;98059.13;4936433;29;20227;-76
2022/01/05 06:37:57;;;;;;;16.65;5.13;;;;;;;3.55;96.65;98065.81;4954341;28;20110;-76
2022/01/05 06:40:23;;;;;;;13.27;5.15;;;;;;;3.56;96.92;98069.28;4936476;28;20465;-77
2022/01/05 06:42:48;;;;;;;20.33;5.22;;;;;;;3.56;96.89;98074.69;4950479;28;20041;-76
2022/01/05 06:45:14;;;;;;;17.73;5.18;;;;;;;3.56;96.63;98080.06;4954406;28;20043;-76
2022/01/05 06:47:39;;;;;;;20.63;4.47;;;;;;;3.56;96.87;98082.75;4951996;28;20680;-75
2022/01/05 06:50:05;;;;;;;15.93;5.22;;;;;;;3.55;97.20;98084.66;4954090;28;20027;-75
2022/01/05 06:52:30;;;;;;;13.05;3.95;;;;;;;3.54;97.11;98093.81;4936310;29;20023;-75
2022/01/05 06:54:56;;;;;;;12.10;3.25;;;;;;;3.52;96.87;98090.63;4953680;28;20023;-76
2022/01/05 06:57:21;;;;;;;9.68;3.00;;;;;;;3.50;96.53;98110.88;4935032;28;20484;-75
2022/01/05 06:59:47;;;;;;;13.50;2.28;;;;;;;3.47;96.96;98098.00;4933501;29;20509;-76
2022/01/05 07:02:12;;;;;;;10.13;3.17;;;;;;;3.46;96.60;98107.94;4946263;28;20035;-75
2022/01/05 07:04:38;;;;;;;11.20;2.80;;;;;;;3.41;96.76;98108.06;4936833;28;20035;-75
2022/01/05 07:07:03;;;;;;;15.18;3.20;;;;;;;3.38;96.80;98108.63;4933898;29;20038;-75
2022/01/05 07:09:29;;;;;;;9.98;2.78;;;;;;;3.37;96.66;98115.09;4931514;28;20110;-76
2022/01/05 07:11:55;;;;;;;13.35;3.38;;;;;;;3.36;96.58;98118.91;4951183;28;20050;-76
2022/01/05 07:14:21;;;;;;;10.70;2.83;;;;;;;3.37;97.01;98120.47;4956361;28;20027;-76
2022/01/05 07:16:46;;;;;;;8.30;1.88;;;;;;;3.37;96.63;98130.47;4952769;28;20077;-76
2022/01/05 07:19:12;;;;;;;7.90;2.08;;;;;;;3.33;96.38;98141.03;4952706;28;20070;-76
2022/01/05 07:21:37;;;;;;;4.75;1.77;;;;;;;3.32;96.58;98147.47;4951645;28;20404;-79
2022/01/05 07:24:03;;;;;;;7.25;1.60;;;;;;;3.32;96.66;98142.09;4936597;29;20035;-76
2022/01/05 07:26:29;;;;;;;8.20;2.28;;;;;;;3.33;96.82;98146.41;4951560;28;20437;-75
2022/01/05 07:28:55;;;;;;;7.93;2.33;;;;;;;3.34;96.92;98145.31;4932747;29;20035;-76
2022/01/05 07:31:23;;;;;;;5.65;2.13;;;;;;;3.37;96.86;98142.03;4949242;28;20043;-77
2022/01/05 07:33:49;;;;;;;6.45;2.03;;;;;;;3.40;96.55;98148.72;4963386;28;20493;-77
2022/01/05 07:36:14;;;;;;;5.88;1.98;;;;;;;3.44;96.74;98158.63;4935604;29;20027;-77
2022/01/05 07:38:40;;;;;;;13.80;2.67;;;;;;;3.44;97.04;98158.63;4950669;28;20035;-77
2022/01/05 07:41:05;;;;;;;13.23;3.58;;;;;;;3.50;96.79;98162.06;4950330;28;20023;-77
2022/01/05 07:43:30;;;;;;;11.85;3.58;;;;;;;3.53;96.75;98162.25;4949555;28;20503;-77
2022/01/05 07:45:56;;;;;;;8.32;4.07;;;;;;;3.54;96.81;98166.53;4948488;28;20035;-77
2022/01/05 07:48:21;;;;;;;10.93;3.08;;;;;;;3.59;96.87;98164.88;4929196;28;20027;-77
2022/01/05 07:50:47;;;;;;;8.75;2.90;;;;;;;3.61;96.73;98168.09;4924796;29;20492;-77
2022/01/05 07:53:14;;;;;;;7.32;4.13;;;;;;;3.61;96.67;98168.09;4950564;28;20027;-77
2022/01/05 07:55:40;;;;;;;10.20;3.17;;;;;;;3.62;96.66;98169.69;4950955;28;20031;-77
2022/01/05 07:58:06;;;;;;;10.40;3.17;;;;;;;3.65;96.73;98167.19;4950815;28;20031;-77
2022/01/05 08:00:31;;;;;;;12.82;2.80;;;;;;;3.68;96.91;98173.88;4932435;28;20093;-76
2022/01/05 08:02:59;;;;;;;17.13;3.22;;;;;;;3.67;96.55;98172.31;4936403;29;20035;-76
2022/01/05 08:05:27;;;;;;;16.70;3.60;;;;;;;3.67;96.53;98169.59;4937317;28;20404;-76
2022/01/05 08:07:52;;;;;;;9.13;2.40;;;;;;;3.68;96.56;98179.28;4951300;28;20038;-76
2022/01/05 08:10:17;;;;;;;12.00;3.63;;;;;;;3.70;96.51;98185.19;4954837;28;20034;-77
2022/01/05 08:12:43;;;;;;;11.43;2.40;;;;;;;3.70;96.95;98188.66;4936453;28;20078;-76
2022/01/05 08:15:11;;;;;;;9.25;3.13;;;;;;;3.70;96.40;98194.06;4954721;28;20023;-76
2022/01/05 08:17:38;;;;;;;10.43;3.03;;;;;;;3.67;96.75;98194.66;4954572;28;20031;-77
2022/01/05 08:20:04;;;;;;;9.70;2.92;;;;;;;3.65;96.44;98193.34;4931751;29;20472;-76
2022/01/05 08:22:29;;;;;;;14.82;3.10;;;;;;;3.59;96.44;98202.59;4936972;29;20031;-77
2022/01/05 08:24:54;;;;;;;13.82;3.45;;;;;;;3.57;96.52;98205.56;4952807;28;20136;-76
2022/01/05 08:27:20;;;;;;;11.55;3.35;;;;;;;3.55;96.50;98216.66;4936178;29;20031;-77
2022/01/05 08:29:46;;;;;;;11.07;4.18;;;;;;;3.51;96.62;98215.59;4931155;28;20380;-76
2022/01/05 08:32:11;;;;;;;8.52;3.50;;;;;;;3.49;96.81;98217.00;4954464;28;20488;-78
2022/01/05 08:34:36;;;;;;;11.30;2.95;;;;;;;3.45;96.62;98218.66;4951965;28;20042;-79
2022/01/05 08:37:02;;;;;;;11.27;2.58;;;;;;;3.39;96.67;98226.03;4950641;28;20421;-76
2022/01/05 08:39:27;;;;;;;16.90;3.38;;;;;;;3.34;97.03;98228.78;4934919;28;20034;-77
2022/01/05 08:41:53;;;;;;;9.75;3.30;;;;;;;3.29;96.87;98226.16;4935634;29;20035;-75
2022/01/05 08:44:18;;;;;;;12.55;4.07;;;;;;;3.21;96.61;98237.56;4960508;28;20035;-75
2022/01/05 08:46:43;;;;;;;8.80;3.60;;;;;;;3.13;96.67;98248.97;4942905;28;20086;-74
2022/01/05 08:49:10;;;;;;;10.77;4.10;;;;;;;3.07;96.69;98254.41;4942283;28;20154;-75
2022/01/05 08:51:39;;;;;;;10.20;4.28;;;;;;;3.05;96.95;98256.56;4959007;28;20082;-75
2022/01/05 08:54:05;;;;;;;11.80;4.30;;;;;;;3.06;96.67;98266.25;4934474;29;20038;-75
2022/01/05 08:56:31;;;;;;;16.02;4.93;;;;;;;3.06;96.27;98271.66;4951026;28;20023;-75
2022/01/05 08:58:56;;;;;;;11.20;4.20;;;;;;;3.03;96.80;98276.81;4955443;28;20483;-75
2022/01/05 09:01:24;;;;;;;13.30;4.43;;;;;;;2.96;96.57;98287.88;4947856;28;20030;-74
2022/01/05 09:03:52;;;;;;;11.20;5.25;;;;;;;2.90;96.31;98286.34;4957344;28;20079;-76
2022/01/05 09:06:17;;;;;;;23.55;4.10;;;;;;;2.84;96.19;98290.19;4956245;28;20106;-76
2022/01/05 09:08:43;;;;;;;6.57;2.38;;;;;;;2.77;96.36;98297.78;4961845;28;20027;-75
2022/01/05 09:11:08;;;;;;;7.45;2.03;;;;;;;2.72;96.23;98304.00;4939783;28;20030;-76
2022/01/05 09:13:34;;;;;;;11.25;1.95;;;;;;;2.70;96.00;98305.38;4957004;28;20508;-75
2022/01/05 09:16:00;;;;;;;3.95;1.73;;;;;;;2.67;96.62;98310.25;4963205;28;20030;-76
2022/01/05 09:18:28;;;;;;;6.15;2.00;;;;;;;2.65;96.16;98315.09;4935145;29;20031;-75
2022/01/05 09:20:53;;;;;;;6.15;1.40;;;;;;;2.63;96.37;98322.63;4956208;28;20027;-75
2022/01/05 09:23:19;;;;;;;4.90;1.25;;;;;;;2.61;96.59;98324.81;4950930;28;20027;-74
2022/01/05 09:25:44;;;;;;;8.57;1.92;;;;;;;2.59;96.61;98329.69;4952895;29;20031;-74
2022/01/05 09:28:10;;;;;;;6.60;1.67;;;;;;;2.58;96.74;98330.75;4926697;28;20118;-74
2022/01/05 09:30:35;;;;;;;7.25;2.30;;;;;;;2.58;96.86;98338.81;4953988;28;20369;-75
2022/01/05 09:33:04;;;;;;;6.22;2.45;;;;;;;2.56;96.61;98343.66;4916722;28;20042;-74
2022/01/05 09:35:30;;;;;;;8.68;2.53;;;;;;;2.55;96.33;98344.75;4935755;29;20031;-74
2022/01/05 09:43:10;;;;;;;5.57;1.65;;;;;;;2.62;96.76;98364.06;4958850;28;20501;-75
2022/01/05 09:45:38;;;;;;;6.07;1.70;;;;;;;2.63;96.71;98362.19;4968322;28;20035;-75
2022/01/05 09:48:20;;;;;;;6.38;2.20;;;;;;;2.64;96.34;98366.47;4931461;29;20074;-76
2022/01/05 09:50:50;;;;;;;6.85;1.77;;;;;;;2.62;96.30;98369.47;4949703;28;20030;-77
2022/01/05 09:53:15;;;;;;;8.02;3.00;;;;;;;2.58;96.60;98372.97;4922216;29;20023;-76
2022/01/05 09:55:41;;;;;;;12.23;2.80;;;;;;;2.56;96.64;98380.50;4921266;28;20039;-76
2022/01/05 09:58:09;;;;;;;6.80;2.67;;;;;;;2.60;96.29;98385.06;4937920;29;20019;-76
2022/01/05 10:00:34;;;;;;;8.20;2.70;;;;;;;2.71;96.58;98403.81;4955302;28;20030;-76
2022/01/05 10:03:00;;;;;;;7.72;2.50;;;;;;;2.82;96.52;98402.66;4938603;29;20377;-76
2022/01/05 10:05:25;;;;;;;6.13;2.42;;;;;;;2.91;96.91;98409.03;4928628;28;20481;-76
2022/01/05 10:07:51;;;;;;;6.78;2.80;;;;;;;2.95;96.68;98417.38;4958245;28;20030;-77
2022/01/05 10:10:16;;;;;;;12.90;3.72;;;;;;;2.95;96.79;98423.53;4932561;29;20499;-76
2022/01/05 10:12:41;;;;;;;9.95;3.60;;;;;;;2.92;96.40;98421.41;4933083;28;20043;-77
2022/01/05 10:15:07;;;;;;;8.85;3.67;;;;;;;2.89;96.63;98428.16;4951236;28;20367;-77
2022/01/05 10:17:33;;;;;;;7.72;4.25;;;;;;;2.87;96.83;98426.84;4936815;29;20511;-76
2022/01/05 10:20:00;;;;;;;10.77;4.88;;;;;;;2.84;96.60;98433.59;4940843;28;20030;-77
2022/01/05 10:22:32;;;;;;;6.85;3.00;;;;;;;2.76;96.11;98433.38;4920373;29;20041;-77
2022/01/05 10:24:57;;;;;;;6.68;3.35;;;;;;;2.67;96.38;98433.97;4954114;28;20058;-77
2022/01/05 10:27:24;;;;;;;11.80;3.85;;;;;;;2.65;96.61;98454.16;4934648;29;20463;-77
2022/01/05 10:30:00;;;;;;;12.15;4.03;;;;;;;2.54;96.45;98458.00;4956108;28;20303;-76
2022/01/05 10:32:29;;;;;;;10.50;4.43;;;;;;;2.41;96.08;98454.03;4923915;29;20027;-77
2022/01/05 10:35:02;;;;;;;12.18;4.35;;;;;;;2.38;96.87;98450.00;4958682;28;20098;-76
2022/01/05 10:37:28;;;;;;;9.80;4.60;;;;;;;2.48;96.82;98459.09;4931261;29;20028;-77
2022/01/05 10:40:23;;;;;;;9.18;4.22;;;;;;;2.55;96.85;98471.16;4954090;28;20042;-75
2022/01/05 10:42:50;;;;;;;5.50;2.95;;;;;;;2.55;96.50;98468.47;4935634;28;20043;-76
2022/01/05 10:45:23;;;;;;;5.43;3.38;;;;;;;2.56;96.98;98478.13;4956668;28;20026;-76
2022/01/05 10:48:06;;;;;;;7.72;3.70;;;;;;;2.63;96.60;98480.53;4951522;28;20023;-76
2022/01/05 10:50:31;;;;;;;6.85;3.05;;;;;;;2.67;96.89;98485.09;4955495;28;20027;-76
2022/01/05 10:52:57;;;;;;;7.15;3.30;;;;;;;2.71;96.95;98496.09;4954247;28;20066;-76
2022/01/05 10:55:24;;;;;;;9.05;2.90;;;;;;;2.70;96.36;98499.03;4937149;29;20031;-76
2022/01/05 10:57:56;;;;;;;3.47;2.05;;;;;;;2.63;96.38;98504.75;4936430;29;20023;-76
2022/01/05 11:00:40;;;;;;;4.75;1.70;;;;;;;2.60;96.02;98516.06;4952400;28;20357;-75
2022/01/05 11:03:24;;;;;;;6.40;2.13;;;;;;;2.55;95.92;98519.56;4952801;28;20038;-74
2022/01/05 11:06:15;;;;;;;3.78;2.10;;;;;;;2.49;96.57;98525.25;4961190;28;20153;-74
2022/01/05 11:09:00;;;;;;;3.45;1.50;;;;;;;2.43;96.43;98540.63;4948538;28;20121;-75
2022/01/05 11:11:39;;;;;;;4.07;1.75;;;;;;;2.37;96.46;98555.13;4936742;28;20053;-74
2022/01/05 11:14:11;;;;;;;3.72;1.60;;;;;;;2.38;96.75;98551.38;4950219;28;20118;-76
2022/01/05 11:16:50;;;;;;;2.60;1.58;;;;;;;2.37;96.79;98555.97;4962426;28;20503;-75
2022/01/05 11:19:29;;;;;;;1.63;1.10;;;;;;;2.44;96.49;98555.66;4949721;28;20023;-78
2022/01/05 11:21:58;;;;;;;1.98;1.10;;;;;;;2.52;96.84;98563.16;4946032;28;20036;-79
2022/01/05 11:24:24;;;;;;;4.78;1.05;;;;;;;2.57;96.01;98565.03;4943379;28;20034;-79
2022/01/05 11:26:50;;;;;;;1.65;0.90;;;;;;;2.63;96.31;98569.28;4934886;29;20031;-78
2022/01/05 11:29:15;;;;;;;3.38;1.20;;;;;;;2.73;96.52;98579.19;4947544;28;20436;-77
2022/01/05 11:31:40;;;;;;;2.60;1.33;;;;;;;2.87;96.77;98580.22;4939510;29;20019;-79
2022/01/05 11:34:06;;;;;;;3.50;1.80;;;;;;;2.99;96.33;98591.44;4921254;29;20027;-78
2022/01/05 11:36:32;;;;;;;2.63;1.33;;;;;;;2.99;96.44;98594.13;4950663;28;20031;-83
2022/01/05 11:38:57;;;;;;;3.08;1.10;;;;;;;2.97;96.47;98606.25;4920653;29;20023;-82